sensor_id;sensor_type;location;lat;lon;timestamp;P1;durP1;ratioP1;P2;durP2;ratioP2
4837;SDS011;2433;48.768;9.154;2022-07-22T00:01:29;4.63;;;4.23;;
4837;SDS011;2433;48.768;9.154;2022-07-22T00:03:54;4.50;;;3.97;;
4837;SDS011;2433;48.768;9.154;2022-07-22T00:06:20;4.47;;;3.97;;
4837;SDS011;2433;48.768;9.154;2022-07-22T00:08:45;4.70;;;4.30;;
4837;SDS011;2433;48.768;9.154;2022-07-22T00:11:11;5.03;;;4.67;;
4837;SDS011;2433;48.768;9.154;2022-07-22T00:13:36;4.27;;;3.63;;
4837;SDS011;2433;48.768;9.154;2022-07-22T00:16:02;3.63;;;3.33;;
4837;SDS011;2433;48.768;9.154;2022-07-22T00:18:28;4.70;;;4.23;;
4837;SDS011;2433;48.768;9.154;2022-07-22T00:20:55;4.57;;;4.03;;
4837;SDS011;2433;48.768;9.154;2022-07-22T00:23:20;4.80;;;4.30;;
4837;SDS011;2433;48.768;9.154;2022-07-22T00:25:46;3.90;;;3.50;;
4837;SDS011;2433;48.768;9.154;2022-07-22T00:28:11;4.70;;;3.23;;
4837;SDS011;2433;48.768;9.154;2022-07-22T00:30:37;5.33;;;3.90;;
4837;SDS011;2433;48.768;9.154;2022-07-22T00:33:03;4.50;;;3.87;;
4837;SDS011;2433;48.768;9.154;2022-07-22T00:35:29;5.03;;;4.20;;
4837;SDS011;2433;48.768;9.154;2022-07-22T00:37:54;5.20;;;4.17;;
4837;SDS011;2433;48.768;9.154;2022-07-22T00:40:20;7.30;;;4.73;;
4837;SDS011;2433;48.768;9.154;2022-07-22T00:42:46;4.90;;;3.40;;
4837;SDS011;2433;48.768;9.154;2022-07-22T00:45:12;5.30;;;4.80;;
4837;SDS011;2433;48.768;9.154;2022-07-22T00:47:38;6.10;;;4.30;;
4837;SDS011;2433;48.768;9.154;2022-07-22T00:50:05;5.40;;;4.20;;
4837;SDS011;2433;48.768;9.154;2022-07-22T00:52:31;4.67;;;3.50;;
4837;SDS011;2433;48.768;9.154;2022-07-22T00:54:58;4.97;;;3.80;;
4837;SDS011;2433;48.768;9.154;2022-07-22T00:57:24;5.63;;;4.37;;
4837;SDS011;2433;48.768;9.154;2022-07-22T00:59:50;4.97;;;4.23;;
4837;SDS011;2433;48.768;9.154;2022-07-22T01:02:16;4.33;;;3.93;;
4837;SDS011;2433;48.768;9.154;2022-07-22T01:04:42;6.80;;;4.10;;
4837;SDS011;2433;48.768;9.154;2022-07-22T01:07:08;4.00;;;3.60;;
4837;SDS011;2433;48.768;9.154;2022-07-22T01:09:34;5.27;;;4.50;;
4837;SDS011;2433;48.768;9.154;2022-07-22T01:12:00;6.10;;;4.23;;
4837;SDS011;2433;48.768;9.154;2022-07-22T01:14:26;3.57;;;3.17;;
4837;SDS011;2433;48.768;9.154;2022-07-22T01:16:51;5.63;;;4.33;;
4837;SDS011;2433;48.768;9.154;2022-07-22T01:19:17;6.23;;;4.40;;
4837;SDS011;2433;48.768;9.154;2022-07-22T01:21:43;4.90;;;4.30;;
4837;SDS011;2433;48.768;9.154;2022-07-22T01:24:09;4.53;;;4.03;;
4837;SDS011;2433;48.768;9.154;2022-07-22T01:26:35;6.00;;;4.93;;
4837;SDS011;2433;48.768;9.154;2022-07-22T01:29:01;5.00;;;3.97;;
4837;SDS011;2433;48.768;9.154;2022-07-22T01:31:27;4.63;;;4.23;;
4837;SDS011;2433;48.768;9.154;2022-07-22T01:33:53;4.87;;;4.37;;
4837;SDS011;2433;48.768;9.154;2022-07-22T01:36:19;6.13;;;3.83;;
4837;SDS011;2433;48.768;9.154;2022-07-22T01:38:45;5.70;;;4.90;;
4837;SDS011;2433;48.768;9.154;2022-07-22T01:41:11;7.20;;;3.97;;
4837;SDS011;2433;48.768;9.154;2022-07-22T01:43:37;6.47;;;4.90;;
4837;SDS011;2433;48.768;9.154;2022-07-22T01:46:03;5.00;;;4.50;;
4837;SDS011;2433;48.768;9.154;2022-07-22T01:48:30;4.60;;;3.60;;
4837;SDS011;2433;48.768;9.154;2022-07-22T01:50:56;4.87;;;4.43;;
4837;SDS011;2433;48.768;9.154;2022-07-22T01:53:21;5.70;;;4.57;;
4837;SDS011;2433;48.768;9.154;2022-07-22T01:55:47;6.00;;;4.20;;
4837;SDS011;2433;48.768;9.154;2022-07-22T01:58:14;6.47;;;4.57;;
4837;SDS011;2433;48.768;9.154;2022-07-22T02:00:41;5.87;;;4.80;;
4837;SDS011;2433;48.768;9.154;2022-07-22T02:03:06;4.70;;;3.90;;
4837;SDS011;2433;48.768;9.154;2022-07-22T02:05:32;5.33;;;4.73;;
4837;SDS011;2433;48.768;9.154;2022-07-22T02:08:05;5.20;;;4.20;;
4837;SDS011;2433;48.768;9.154;2022-07-22T02:10:53;5.90;;;4.50;;
4837;SDS011;2433;48.768;9.154;2022-07-22T02:13:19;6.93;;;4.70;;
4837;SDS011;2433;48.768;9.154;2022-07-22T02:15:44;4.70;;;3.90;;
4837;SDS011;2433;48.768;9.154;2022-07-22T02:18:14;4.10;;;3.70;;
4837;SDS011;2433;48.768;9.154;2022-07-22T02:20:42;6.88;;;4.70;;
4837;SDS011;2433;48.768;9.154;2022-07-22T02:23:08;5.63;;;5.13;;
4837;SDS011;2433;48.768;9.154;2022-07-22T02:25:34;5.93;;;5.07;;
4837;SDS011;2433;48.768;9.154;2022-07-22T02:28:00;7.80;;;5.50;;
4837;SDS011;2433;48.768;9.154;2022-07-22T02:30:26;5.43;;;4.37;;
4837;SDS011;2433;48.768;9.154;2022-07-22T02:32:52;4.97;;;4.37;;
4837;SDS011;2433;48.768;9.154;2022-07-22T02:35:17;5.17;;;4.57;;
4837;SDS011;2433;48.768;9.154;2022-07-22T02:37:43;8.20;;;5.43;;
4837;SDS011;2433;48.768;9.154;2022-07-22T02:40:09;7.37;;;4.90;;
4837;SDS011;2433;48.768;9.154;2022-07-22T02:42:35;5.07;;;4.37;;
4837;SDS011;2433;48.768;9.154;2022-07-22T02:45:02;5.83;;;4.30;;
4837;SDS011;2433;48.768;9.154;2022-07-22T02:47:28;5.60;;;4.23;;
4837;SDS011;2433;48.768;9.154;2022-07-22T02:49:54;6.70;;;4.77;;
4837;SDS011;2433;48.768;9.154;2022-07-22T02:52:20;6.73;;;4.97;;
4837;SDS011;2433;48.768;9.154;2022-07-22T02:54:46;9.60;;;6.47;;
4837;SDS011;2433;48.768;9.154;2022-07-22T02:57:12;8.03;;;5.60;;
4837;SDS011;2433;48.768;9.154;2022-07-22T02:59:37;7.00;;;4.50;;
4837;SDS011;2433;48.768;9.154;2022-07-22T03:02:03;6.70;;;4.57;;
4837;SDS011;2433;48.768;9.154;2022-07-22T03:04:29;9.47;;;5.77;;
4837;SDS011;2433;48.768;9.154;2022-07-22T03:06:55;6.63;;;5.20;;
4837;SDS011;2433;48.768;9.154;2022-07-22T03:09:22;7.70;;;6.10;;
4837;SDS011;2433;48.768;9.154;2022-07-22T03:11:48;5.37;;;4.83;;
4837;SDS011;2433;48.768;9.154;2022-07-22T03:14:14;7.07;;;5.50;;
4837;SDS011;2433;48.768;9.154;2022-07-22T03:16:42;6.40;;;5.10;;
4837;SDS011;2433;48.768;9.154;2022-07-22T03:19:07;5.93;;;4.80;;
4837;SDS011;2433;48.768;9.154;2022-07-22T03:21:34;8.70;;;6.10;;
4837;SDS011;2433;48.768;9.154;2022-07-22T03:24:00;6.33;;;5.00;;
4837;SDS011;2433;48.768;9.154;2022-07-22T03:26:25;8.53;;;5.53;;
4837;SDS011;2433;48.768;9.154;2022-07-22T03:28:51;8.73;;;6.00;;
4837;SDS011;2433;48.768;9.154;2022-07-22T03:31:17;7.83;;;5.97;;
4837;SDS011;2433;48.768;9.154;2022-07-22T03:33:43;7.70;;;5.93;;
4837;SDS011;2433;48.768;9.154;2022-07-22T03:36:09;9.20;;;6.77;;
4837;SDS011;2433;48.768;9.154;2022-07-22T03:38:37;6.73;;;5.30;;
4837;SDS011;2433;48.768;9.154;2022-07-22T03:41:03;8.70;;;5.30;;
4837;SDS011;2433;48.768;9.154;2022-07-22T03:43:29;8.50;;;6.07;;
4837;SDS011;2433;48.768;9.154;2022-07-22T03:45:55;5.80;;;5.00;;
4837;SDS011;2433;48.768;9.154;2022-07-22T03:48:21;8.03;;;5.60;;
4837;SDS011;2433;48.768;9.154;2022-07-22T03:50:47;7.10;;;6.07;;
4837;SDS011;2433;48.768;9.154;2022-07-22T03:53:14;10.13;;;7.10;;
4837;SDS011;2433;48.768;9.154;2022-07-22T03:55:40;8.90;;;6.60;;
4837;SDS011;2433;48.768;9.154;2022-07-22T03:58:06;8.37;;;6.10;;
4837;SDS011;2433;48.768;9.154;2022-07-22T04:00:32;7.47;;;5.20;;
4837;SDS011;2433;48.768;9.154;2022-07-22T04:03:00;8.13;;;5.97;;
4837;SDS011;2433;48.768;9.154;2022-07-22T04:05:52;7.37;;;6.30;;
4837;SDS011;2433;48.768;9.154;2022-07-22T04:08:32;8.03;;;6.70;;
4837;SDS011;2433;48.768;9.154;2022-07-22T04:10:58;8.87;;;6.23;;
4837;SDS011;2433;48.768;9.154;2022-07-22T04:13:24;6.63;;;5.20;;
4837;SDS011;2433;48.768;9.154;2022-07-22T04:15:53;8.13;;;4.97;;
4837;SDS011;2433;48.768;9.154;2022-07-22T04:18:19;6.73;;;5.50;;
4837;SDS011;2433;48.768;9.154;2022-07-22T04:20:45;7.23;;;5.40;;
4837;SDS011;2433;48.768;9.154;2022-07-22T04:23:32;7.27;;;6.07;;
4837;SDS011;2433;48.768;9.154;2022-07-22T04:26:06;9.47;;;6.27;;
4837;SDS011;2433;48.768;9.154;2022-07-22T04:28:33;8.23;;;5.60;;
4837;SDS011;2433;48.768;9.154;2022-07-22T04:31:01;9.18;;;5.97;;
4837;SDS011;2433;48.768;9.154;2022-07-22T04:33:28;7.77;;;5.93;;
4837;SDS011;2433;48.768;9.154;2022-07-22T04:35:53;6.70;;;5.50;;
4837;SDS011;2433;48.768;9.154;2022-07-22T04:38:20;6.43;;;5.47;;
4837;SDS011;2433;48.768;9.154;2022-07-22T04:40:58;10.95;;;6.10;;
4837;SDS011;2433;48.768;9.154;2022-07-22T04:43:36;6.40;;;5.73;;
4837;SDS011;2433;48.768;9.154;2022-07-22T04:46:01;9.90;;;5.50;;
4837;SDS011;2433;48.768;9.154;2022-07-22T04:48:31;5.50;;;4.67;;
4837;SDS011;2433;48.768;9.154;2022-07-22T04:50:58;9.00;;;5.77;;
4837;SDS011;2433;48.768;9.154;2022-07-22T04:53:27;7.77;;;5.83;;
4837;SDS011;2433;48.768;9.154;2022-07-22T04:55:53;9.83;;;6.47;;
4837;SDS011;2433;48.768;9.154;2022-07-22T04:58:19;8.23;;;5.53;;
4837;SDS011;2433;48.768;9.154;2022-07-22T05:00:46;6.87;;;5.80;;
4837;SDS011;2433;48.768;9.154;2022-07-22T05:03:12;6.80;;;4.93;;
4837;SDS011;2433;48.768;9.154;2022-07-22T05:05:39;8.80;;;5.57;;
4837;SDS011;2433;48.768;9.154;2022-07-22T05:08:05;8.60;;;5.70;;
4837;SDS011;2433;48.768;9.154;2022-07-22T05:10:31;6.43;;;5.33;;
4837;SDS011;2433;48.768;9.154;2022-07-22T05:12:58;9.00;;;5.80;;
4837;SDS011;2433;48.768;9.154;2022-07-22T05:15:25;6.55;;;5.40;;
4837;SDS011;2433;48.768;9.154;2022-07-22T05:17:50;7.37;;;5.57;;
4837;SDS011;2433;48.768;9.154;2022-07-22T05:20:21;7.57;;;5.30;;
4837;SDS011;2433;48.768;9.154;2022-07-22T05:22:46;7.10;;;6.40;;
4837;SDS011;2433;48.768;9.154;2022-07-22T05:25:17;7.40;;;5.63;;
4837;SDS011;2433;48.768;9.154;2022-07-22T05:27:52;7.78;;;5.55;;
4837;SDS011;2433;48.768;9.154;2022-07-22T05:30:45;7.57;;;5.50;;
4837;SDS011;2433;48.768;9.154;2022-07-22T05:33:10;9.63;;;6.30;;
4837;SDS011;2433;48.768;9.154;2022-07-22T05:35:55;9.07;;;6.90;;
4837;SDS011;2433;48.768;9.154;2022-07-22T05:38:21;9.97;;;6.20;;
4837;SDS011;2433;48.768;9.154;2022-07-22T05:40:47;7.70;;;5.30;;
4837;SDS011;2433;48.768;9.154;2022-07-22T05:43:12;9.07;;;6.80;;
4837;SDS011;2433;48.768;9.154;2022-07-22T05:45:38;10.30;;;6.83;;
4837;SDS011;2433;48.768;9.154;2022-07-22T05:48:04;7.40;;;6.17;;
4837;SDS011;2433;48.768;9.154;2022-07-22T05:50:32;7.77;;;6.23;;
4837;SDS011;2433;48.768;9.154;2022-07-22T05:52:57;10.80;;;7.00;;
4837;SDS011;2433;48.768;9.154;2022-07-22T05:55:23;9.77;;;6.43;;
4837;SDS011;2433;48.768;9.154;2022-07-22T05:57:49;8.10;;;6.20;;
4837;SDS011;2433;48.768;9.154;2022-07-22T06:00:14;11.23;;;6.80;;
4837;SDS011;2433;48.768;9.154;2022-07-22T06:02:41;8.33;;;5.93;;
4837;SDS011;2433;48.768;9.154;2022-07-22T06:05:11;8.33;;;7.00;;
4837;SDS011;2433;48.768;9.154;2022-07-22T06:07:37;10.27;;;6.70;;
4837;SDS011;2433;48.768;9.154;2022-07-22T06:10:03;6.93;;;5.83;;
4837;SDS011;2433;48.768;9.154;2022-07-22T06:12:31;10.53;;;7.00;;
4837;SDS011;2433;48.768;9.154;2022-07-22T06:14:57;9.30;;;6.87;;
4837;SDS011;2433;48.768;9.154;2022-07-22T06:17:23;9.43;;;6.53;;
4837;SDS011;2433;48.768;9.154;2022-07-22T06:19:48;8.37;;;6.20;;
4837;SDS011;2433;48.768;9.154;2022-07-22T06:22:14;10.87;;;7.63;;
4837;SDS011;2433;48.768;9.154;2022-07-22T06:24:43;9.33;;;6.30;;
4837;SDS011;2433;48.768;9.154;2022-07-22T06:27:09;8.37;;;7.43;;
4837;SDS011;2433;48.768;9.154;2022-07-22T06:29:35;7.77;;;6.97;;
4837;SDS011;2433;48.768;9.154;2022-07-22T06:32:01;7.60;;;5.77;;
4837;SDS011;2433;48.768;9.154;2022-07-22T06:34:27;11.73;;;6.60;;
4837;SDS011;2433;48.768;9.154;2022-07-22T06:36:58;8.83;;;6.10;;
4837;SDS011;2433;48.768;9.154;2022-07-22T06:39:23;9.00;;;6.60;;
4837;SDS011;2433;48.768;9.154;2022-07-22T06:42:12;11.23;;;6.73;;
4837;SDS011;2433;48.768;9.154;2022-07-22T06:44:47;9.63;;;7.23;;
4837;SDS011;2433;48.768;9.154;2022-07-22T06:47:22;9.02;;;7.07;;
4837;SDS011;2433;48.768;9.154;2022-07-22T06:49:49;9.00;;;7.10;;
4837;SDS011;2433;48.768;9.154;2022-07-22T06:52:14;8.70;;;7.30;;
4837;SDS011;2433;48.768;9.154;2022-07-22T06:54:40;8.73;;;6.60;;
4837;SDS011;2433;48.768;9.154;2022-07-22T06:57:05;10.93;;;7.03;;
4837;SDS011;2433;48.768;9.154;2022-07-22T06:59:33;10.60;;;6.70;;
4837;SDS011;2433;48.768;9.154;2022-07-22T07:02:00;12.07;;;8.50;;
4837;SDS011;2433;48.768;9.154;2022-07-22T07:04:25;10.10;;;7.40;;
4837;SDS011;2433;48.768;9.154;2022-07-22T07:06:51;12.37;;;6.97;;
4837;SDS011;2433;48.768;9.154;2022-07-22T07:09:31;10.77;;;7.50;;
4837;SDS011;2433;48.768;9.154;2022-07-22T07:12:20;13.07;;;8.07;;
4837;SDS011;2433;48.768;9.154;2022-07-22T07:15:05;9.20;;;7.40;;
4837;SDS011;2433;48.768;9.154;2022-07-22T07:17:31;8.50;;;6.37;;
4837;SDS011;2433;48.768;9.154;2022-07-22T07:19:56;12.20;;;8.17;;
4837;SDS011;2433;48.768;9.154;2022-07-22T07:22:22;9.47;;;7.30;;
4837;SDS011;2433;48.768;9.154;2022-07-22T07:24:48;10.27;;;7.63;;
4837;SDS011;2433;48.768;9.154;2022-07-22T07:27:13;7.13;;;6.40;;
4837;SDS011;2433;48.768;9.154;2022-07-22T07:29:40;9.07;;;6.50;;
4837;SDS011;2433;48.768;9.154;2022-07-22T07:32:06;7.83;;;5.80;;
4837;SDS011;2433;48.768;9.154;2022-07-22T07:34:32;9.37;;;7.10;;
4837;SDS011;2433;48.768;9.154;2022-07-22T07:36:58;9.73;;;7.17;;
4837;SDS011;2433;48.768;9.154;2022-07-22T07:39:23;10.80;;;7.90;;
4837;SDS011;2433;48.768;9.154;2022-07-22T07:41:49;9.10;;;6.40;;
4837;SDS011;2433;48.768;9.154;2022-07-22T07:44:17;7.77;;;6.97;;
4837;SDS011;2433;48.768;9.154;2022-07-22T07:46:42;10.30;;;6.20;;
4837;SDS011;2433;48.768;9.154;2022-07-22T07:49:08;9.13;;;7.30;;
4837;SDS011;2433;48.768;9.154;2022-07-22T07:51:34;10.67;;;7.30;;
4837;SDS011;2433;48.768;9.154;2022-07-22T07:54:00;9.20;;;6.60;;
4837;SDS011;2433;48.768;9.154;2022-07-22T07:56:26;7.90;;;6.50;;
4837;SDS011;2433;48.768;9.154;2022-07-22T07:58:51;9.67;;;7.53;;
4837;SDS011;2433;48.768;9.154;2022-07-22T08:01:17;8.60;;;6.83;;
4837;SDS011;2433;48.768;9.154;2022-07-22T08:03:44;8.43;;;7.03;;
4837;SDS011;2433;48.768;9.154;2022-07-22T08:06:10;9.37;;;7.00;;
4837;SDS011;2433;48.768;9.154;2022-07-22T08:08:35;8.93;;;6.70;;
4837;SDS011;2433;48.768;9.154;2022-07-22T08:11:11;8.53;;;7.13;;
4837;SDS011;2433;48.768;9.154;2022-07-22T08:13:47;10.40;;;7.50;;
4837;SDS011;2433;48.768;9.154;2022-07-22T08:16:34;8.90;;;6.73;;
4837;SDS011;2433;48.768;9.154;2022-07-22T08:19:00;8.57;;;6.70;;
4837;SDS011;2433;48.768;9.154;2022-07-22T08:21:25;10.97;;;7.47;;
4837;SDS011;2433;48.768;9.154;2022-07-22T08:23:54;6.90;;;6.20;;
4837;SDS011;2433;48.768;9.154;2022-07-22T08:26:20;7.90;;;7.10;;
4837;SDS011;2433;48.768;9.154;2022-07-22T08:28:46;10.53;;;7.30;;
4837;SDS011;2433;48.768;9.154;2022-07-22T08:31:12;10.13;;;8.33;;
4837;SDS011;2433;48.768;9.154;2022-07-22T08:33:37;8.70;;;7.83;;
4837;SDS011;2433;48.768;9.154;2022-07-22T08:36:03;8.17;;;6.77;;
4837;SDS011;2433;48.768;9.154;2022-07-22T08:38:30;7.67;;;5.77;;
4837;SDS011;2433;48.768;9.154;2022-07-22T08:40:56;8.73;;;7.87;;
4837;SDS011;2433;48.768;9.154;2022-07-22T08:43:22;7.93;;;6.30;;
4837;SDS011;2433;48.768;9.154;2022-07-22T08:45:49;9.37;;;6.17;;
4837;SDS011;2433;48.768;9.154;2022-07-22T08:48:15;8.57;;;7.10;;
4837;SDS011;2433;48.768;9.154;2022-07-22T08:50:43;12.97;;;8.13;;
4837;SDS011;2433;48.768;9.154;2022-07-22T08:53:15;12.73;;;9.93;;
4837;SDS011;2433;48.768;9.154;2022-07-22T08:55:43;8.80;;;6.50;;
4837;SDS011;2433;48.768;9.154;2022-07-22T08:58:10;10.70;;;7.93;;
4837;SDS011;2433;48.768;9.154;2022-07-22T09:00:37;8.33;;;6.30;;
4837;SDS011;2433;48.768;9.154;2022-07-22T09:03:23;9.00;;;8.10;;
4837;SDS011;2433;48.768;9.154;2022-07-22T09:05:55;9.73;;;7.03;;
4837;SDS011;2433;48.768;9.154;2022-07-22T09:08:21;11.00;;;7.93;;
4837;SDS011;2433;48.768;9.154;2022-07-22T09:11:00;9.23;;;7.45;;
4837;SDS011;2433;48.768;9.154;2022-07-22T09:13:59;8.93;;;7.30;;
4837;SDS011;2433;48.768;9.154;2022-07-22T09:16:43;6.87;;;6.17;;
4837;SDS011;2433;48.768;9.154;2022-07-22T09:19:31;8.20;;;6.90;;
4837;SDS011;2433;48.768;9.154;2022-07-22T09:30:55;7.60;;;6.80;;
4837;SDS011;2433;48.768;9.154;2022-07-22T09:33:21;7.50;;;5.87;;
4837;SDS011;2433;48.768;9.154;2022-07-22T09:35:53;8.57;;;6.90;;
4837;SDS011;2433;48.768;9.154;2022-07-22T09:38:27;10.33;;;7.93;;
4837;SDS011;2433;48.768;9.154;2022-07-22T09:40:54;8.93;;;7.23;;
4837;SDS011;2433;48.768;9.154;2022-07-22T09:43:20;7.80;;;6.60;;
4837;SDS011;2433;48.768;9.154;2022-07-22T09:48:18;8.70;;;7.63;;
4837;SDS011;2433;48.768;9.154;2022-07-22T09:50:54;10.00;;;6.10;;
4837;SDS011;2433;48.768;9.154;2022-07-22T09:53:34;9.80;;;7.03;;
4837;SDS011;2433;48.768;9.154;2022-07-22T09:56:04;7.90;;;7.10;;
4837;SDS011;2433;48.768;9.154;2022-07-22T09:58:32;8.13;;;7.20;;
4837;SDS011;2433;48.768;9.154;2022-07-22T10:00:59;7.20;;;6.50;;
4837;SDS011;2433;48.768;9.154;2022-07-22T10:03:31;8.23;;;7.13;;
4837;SDS011;2433;48.768;9.154;2022-07-22T10:06:00;8.60;;;7.03;;
4837;SDS011;2433;48.768;9.154;2022-07-22T10:08:27;7.80;;;6.30;;
4837;SDS011;2433;48.768;9.154;2022-07-22T10:10:53;8.97;;;6.50;;
4837;SDS011;2433;48.768;9.154;2022-07-22T10:13:26;8.93;;;6.85;;
4837;SDS011;2433;48.768;9.154;2022-07-22T10:15:51;6.93;;;6.23;;
4837;SDS011;2433;48.768;9.154;2022-07-22T10:18:18;7.40;;;6.60;;
4837;SDS011;2433;48.768;9.154;2022-07-22T10:20:46;6.80;;;5.88;;
4837;SDS011;2433;48.768;9.154;2022-07-22T10:23:12;7.10;;;6.40;;
4837;SDS011;2433;48.768;9.154;2022-07-22T10:28:20;7.90;;;7.10;;
4837;SDS011;2433;48.768;9.154;2022-07-22T10:33:49;8.03;;;5.70;;
4837;SDS011;2433;48.768;9.154;2022-07-22T10:36:38;6.87;;;5.80;;
4837;SDS011;2433;48.768;9.154;2022-07-22T10:39:08;8.80;;;6.50;;
4837;SDS011;2433;48.768;9.154;2022-07-22T10:41:40;8.57;;;7.03;;
4837;SDS011;2433;48.768;9.154;2022-07-22T10:44:07;7.73;;;6.93;;
4837;SDS011;2433;48.768;9.154;2022-07-22T10:49:19;7.77;;;5.90;;
4837;SDS011;2433;48.768;9.154;2022-07-22T10:57:40;7.77;;;6.43;;
4837;SDS011;2433;48.768;9.154;2022-07-22T11:00:06;6.30;;;5.77;;
4837;SDS011;2433;48.768;9.154;2022-07-22T11:02:33;7.07;;;6.27;;
4837;SDS011;2433;48.768;9.154;2022-07-22T11:04:59;7.13;;;6.17;;
4837;SDS011;2433;48.768;9.154;2022-07-22T11:07:24;7.03;;;6.33;;
4837;SDS011;2433;48.768;9.154;2022-07-22T11:09:53;7.77;;;6.87;;
4837;SDS011;2433;48.768;9.154;2022-07-22T11:12:18;6.80;;;6.13;;
4837;SDS011;2433;48.768;9.154;2022-07-22T11:14:44;7.43;;;6.83;;
4837;SDS011;2433;48.768;9.154;2022-07-22T11:17:10;7.57;;;6.80;;
4837;SDS011;2433;48.768;9.154;2022-07-22T11:19:39;7.23;;;6.53;;
4837;SDS011;2433;48.768;9.154;2022-07-22T11:22:06;6.90;;;6.30;;
4837;SDS011;2433;48.768;9.154;2022-07-22T11:24:36;7.20;;;6.50;;
4837;SDS011;2433;48.768;9.154;2022-07-22T11:27:02;6.63;;;6.03;;
4837;SDS011;2433;48.768;9.154;2022-07-22T11:29:29;7.43;;;6.10;;
4837;SDS011;2433;48.768;9.154;2022-07-22T11:31:59;6.10;;;5.50;;
4837;SDS011;2433;48.768;9.154;2022-07-22T11:34:25;5.40;;;4.90;;
4837;SDS011;2433;48.768;9.154;2022-07-22T11:36:52;5.90;;;5.22;;
4837;SDS011;2433;48.768;9.154;2022-07-22T11:39:20;5.73;;;5.00;;
4837;SDS011;2433;48.768;9.154;2022-07-22T11:41:56;4.40;;;3.87;;
4837;SDS011;2433;48.768;9.154;2022-07-22T11:44:26;5.07;;;3.80;;
4837;SDS011;2433;48.768;9.154;2022-07-22T11:46:56;5.20;;;4.72;;
4837;SDS011;2433;48.768;9.154;2022-07-22T11:49:24;6.30;;;4.82;;
4837;SDS011;2433;48.768;9.154;2022-07-22T11:51:51;5.73;;;5.13;;
4837;SDS011;2433;48.768;9.154;2022-07-22T11:54:17;5.73;;;5.10;;
4837;SDS011;2433;48.768;9.154;2022-07-22T11:56:43;6.13;;;5.33;;
4837;SDS011;2433;48.768;9.154;2022-07-22T11:59:13;6.37;;;5.77;;
4837;SDS011;2433;48.768;9.154;2022-07-22T12:01:40;7.63;;;5.50;;
4837;SDS011;2433;48.768;9.154;2022-07-22T12:04:07;5.07;;;4.57;;
4837;SDS011;2433;48.768;9.154;2022-07-22T12:06:35;6.13;;;5.63;;
4837;SDS011;2433;48.768;9.154;2022-07-22T12:09:08;5.97;;;5.40;;
4837;SDS011;2433;48.768;9.154;2022-07-22T12:11:37;5.93;;;5.43;;
4837;SDS011;2433;48.768;9.154;2022-07-22T12:14:07;5.53;;;4.90;;
4837;SDS011;2433;48.768;9.154;2022-07-22T12:16:37;5.30;;;4.80;;
4837;SDS011;2433;48.768;9.154;2022-07-22T12:19:07;4.50;;;4.10;;
4837;SDS011;2433;48.768;9.154;2022-07-22T12:21:50;5.00;;;4.60;;
4837;SDS011;2433;48.768;9.154;2022-07-22T12:24:33;4.77;;;4.37;;
4837;SDS011;2433;48.768;9.154;2022-07-22T12:27:01;5.30;;;4.80;;
4837;SDS011;2433;48.768;9.154;2022-07-22T12:32:02;5.28;;;4.80;;
4837;SDS011;2433;48.768;9.154;2022-07-22T12:34:32;5.47;;;4.97;;
4837;SDS011;2433;48.768;9.154;2022-07-22T12:37:19;4.80;;;4.33;;
4837;SDS011;2433;48.768;9.154;2022-07-22T12:42:34;5.70;;;5.20;;
4837;SDS011;2433;48.768;9.154;2022-07-22T12:45:05;5.33;;;4.93;;
4837;SDS011;2433;48.768;9.154;2022-07-22T12:47:42;4.97;;;4.57;;
4837;SDS011;2433;48.768;9.154;2022-07-22T12:50:24;4.37;;;4.00;;
4837;SDS011;2433;48.768;9.154;2022-07-22T12:52:55;4.87;;;4.47;;
4837;SDS011;2433;48.768;9.154;2022-07-22T12:55:34;5.00;;;4.60;;
4837;SDS011;2433;48.768;9.154;2022-07-22T12:58:01;4.82;;;4.38;;
4837;SDS011;2433;48.768;9.154;2022-07-22T13:00:29;4.90;;;4.40;;
4837;SDS011;2433;48.768;9.154;2022-07-22T13:02:55;5.83;;;5.30;;
4837;SDS011;2433;48.768;9.154;2022-07-22T13:05:22;5.20;;;4.70;;
4837;SDS011;2433;48.768;9.154;2022-07-22T13:07:48;5.37;;;4.77;;
4837;SDS011;2433;48.768;9.154;2022-07-22T13:10:14;4.97;;;4.53;;
4837;SDS011;2433;48.768;9.154;2022-07-22T13:12:40;5.10;;;4.60;;
4837;SDS011;2433;48.768;9.154;2022-07-22T13:15:06;6.50;;;4.87;;
4837;SDS011;2433;48.768;9.154;2022-07-22T13:17:33;4.90;;;4.50;;
4837;SDS011;2433;48.768;9.154;2022-07-22T13:19:59;4.83;;;4.33;;
4837;SDS011;2433;48.768;9.154;2022-07-22T13:22:24;5.20;;;4.70;;
4837;SDS011;2433;48.768;9.154;2022-07-22T13:24:50;5.43;;;4.93;;
4837;SDS011;2433;48.768;9.154;2022-07-22T13:27:16;5.00;;;4.60;;
4837;SDS011;2433;48.768;9.154;2022-07-22T13:29:42;6.63;;;5.18;;
4837;SDS011;2433;48.768;9.154;2022-07-22T13:32:07;4.55;;;4.15;;
4837;SDS011;2433;48.768;9.154;2022-07-22T13:34:33;5.03;;;4.60;;
4837;SDS011;2433;48.768;9.154;2022-07-22T13:36:59;4.67;;;4.23;;
4837;SDS011;2433;48.768;9.154;2022-07-22T13:39:25;4.97;;;4.57;;
4837;SDS011;2433;48.768;9.154;2022-07-22T13:41:51;6.13;;;5.50;;
4837;SDS011;2433;48.768;9.154;2022-07-22T13:44:16;6.70;;;4.70;;
4837;SDS011;2433;48.768;9.154;2022-07-22T13:46:42;8.80;;;5.00;;
4837;SDS011;2433;48.768;9.154;2022-07-22T13:49:07;5.00;;;4.60;;
4837;SDS011;2433;48.768;9.154;2022-07-22T13:51:33;5.23;;;4.73;;
4837;SDS011;2433;48.768;9.154;2022-07-22T13:53:58;5.93;;;5.40;;
4837;SDS011;2433;48.768;9.154;2022-07-22T13:56:24;4.97;;;4.57;;
4837;SDS011;2433;48.768;9.154;2022-07-22T13:58:50;5.28;;;4.78;;
4837;SDS011;2433;48.768;9.154;2022-07-22T14:01:16;7.53;;;4.50;;
4837;SDS011;2433;48.768;9.154;2022-07-22T14:03:42;4.87;;;4.47;;
4837;SDS011;2433;48.768;9.154;2022-07-22T14:06:07;5.87;;;4.53;;
4837;SDS011;2433;48.768;9.154;2022-07-22T14:08:34;4.40;;;4.00;;
4837;SDS011;2433;48.768;9.154;2022-07-22T14:11:00;4.50;;;4.10;;
4837;SDS011;2433;48.768;9.154;2022-07-22T14:13:26;5.13;;;4.63;;
4837;SDS011;2433;48.768;9.154;2022-07-22T14:15:51;4.00;;;3.70;;
4837;SDS011;2433;48.768;9.154;2022-07-22T14:18:17;3.50;;;3.20;;
4837;SDS011;2433;48.768;9.154;2022-07-22T14:20:42;5.07;;;4.67;;
4837;SDS011;2433;48.768;9.154;2022-07-22T14:23:08;5.40;;;4.73;;
4837;SDS011;2433;48.768;9.154;2022-07-22T14:25:38;5.53;;;5.07;;
4837;SDS011;2433;48.768;9.154;2022-07-22T14:28:05;5.10;;;4.60;;
4837;SDS011;2433;48.768;9.154;2022-07-22T14:30:32;6.70;;;4.87;;
4837;SDS011;2433;48.768;9.154;2022-07-22T14:32:59;5.30;;;4.80;;
4837;SDS011;2433;48.768;9.154;2022-07-22T14:35:25;5.30;;;4.47;;
4837;SDS011;2433;48.768;9.154;2022-07-22T14:37:51;4.33;;;3.90;;
4837;SDS011;2433;48.768;9.154;2022-07-22T14:40:16;6.33;;;4.43;;
4837;SDS011;2433;48.768;9.154;2022-07-22T14:42:42;5.93;;;5.43;;
4837;SDS011;2433;48.768;9.154;2022-07-22T14:45:07;4.60;;;4.17;;
4837;SDS011;2433;48.768;9.154;2022-07-22T14:47:35;4.47;;;4.07;;
4837;SDS011;2433;48.768;9.154;2022-07-22T14:50:04;4.97;;;4.47;;
4837;SDS011;2433;48.768;9.154;2022-07-22T14:52:31;5.10;;;4.20;;
4837;SDS011;2433;48.768;9.154;2022-07-22T14:54:57;4.90;;;4.50;;
4837;SDS011;2433;48.768;9.154;2022-07-22T14:57:22;4.53;;;4.13;;
4837;SDS011;2433;48.768;9.154;2022-07-22T14:59:48;5.90;;;5.23;;
4837;SDS011;2433;48.768;9.154;2022-07-22T15:02:14;4.80;;;4.40;;
4837;SDS011;2433;48.768;9.154;2022-07-22T15:04:39;5.33;;;4.90;;
4837;SDS011;2433;48.768;9.154;2022-07-22T15:07:05;5.27;;;4.77;;
4837;SDS011;2433;48.768;9.154;2022-07-22T15:09:30;7.87;;;4.60;;
4837;SDS011;2433;48.768;9.154;2022-07-22T15:11:56;5.20;;;4.80;;
4837;SDS011;2433;48.768;9.154;2022-07-22T15:14:21;5.97;;;5.40;;
4837;SDS011;2433;48.768;9.154;2022-07-22T15:16:47;5.70;;;4.97;;
4837;SDS011;2433;48.768;9.154;2022-07-22T15:19:12;5.37;;;4.93;;
4837;SDS011;2433;48.768;9.154;2022-07-22T15:21:38;4.68;;;4.25;;
4837;SDS011;2433;48.768;9.154;2022-07-22T15:24:04;6.37;;;5.70;;
4837;SDS011;2433;48.768;9.154;2022-07-22T15:26:30;6.00;;;5.22;;
4837;SDS011;2433;48.768;9.154;2022-07-22T15:28:56;5.17;;;4.67;;
4837;SDS011;2433;48.768;9.154;2022-07-22T15:31:22;5.53;;;5.03;;
4837;SDS011;2433;48.768;9.154;2022-07-22T15:33:48;5.87;;;5.23;;
4837;SDS011;2433;48.768;9.154;2022-07-22T15:36:14;4.63;;;4.22;;
4837;SDS011;2433;48.768;9.154;2022-07-22T15:38:40;5.67;;;4.57;;
4837;SDS011;2433;48.768;9.154;2022-07-22T15:41:06;4.83;;;4.33;;
4837;SDS011;2433;48.768;9.154;2022-07-22T15:43:33;4.80;;;4.40;;
4837;SDS011;2433;48.768;9.154;2022-07-22T15:45:59;5.77;;;4.77;;
4837;SDS011;2433;48.768;9.154;2022-07-22T15:48:26;5.47;;;4.88;;
4837;SDS011;2433;48.768;9.154;2022-07-22T15:50:52;5.07;;;4.60;;